sensor_id;sensor_type;location;lat;lon;timestamp;pressure;altitude;pressure_sealevel;temperature;humidity
76730;BME280;65653;53.106;18.046;2023-04-25T00:00:27;99601.02;;;10.03;96.14
76730;BME280;65653;53.106;18.046;2023-04-25T00:03:14;99602.16;;;10.02;96.19
76730;BME280;65653;53.106;18.046;2023-04-25T00:05:40;99603.27;;;10.00;96.23
76730;BME280;65653;53.106;18.046;2023-04-25T00:08:07;99600.80;;;9.99;96.19
76730;BME280;65653;53.106;18.046;2023-04-25T00:10:34;99597.50;;;9.98;96.14
76730;BME280;65653;53.106;18.046;2023-04-25T00:13:01;99597.09;;;9.97;95.95
76730;BME280;65653;53.106;18.046;2023-04-25T00:15:29;99599.27;;;9.96;95.69
76730;BME280;65653;53.106;18.046;2023-04-25T00:17:58;99595.08;;;9.93;95.18
76730;BME280;65653;53.106;18.046;2023-04-25T00:20:24;99599.61;;;9.91;94.98
76730;BME280;65653;53.106;18.046;2023-04-25T00:22:51;99602.21;;;9.90;95.06
76730;BME280;65653;53.106;18.046;2023-04-25T00:25:19;99604.58;;;9.87;94.94
76730;BME280;65653;53.106;18.046;2023-04-25T00:27:46;99609.53;;;9.85;94.74
76730;BME280;65653;53.106;18.046;2023-04-25T00:30:13;99610.39;;;9.81;94.30
76730;BME280;65653;53.106;18.046;2023-04-25T00:32:40;99614.86;;;9.76;93.74
76730;BME280;65653;53.106;18.046;2023-04-25T00:35:07;99614.31;;;9.71;93.26
76730;BME280;65653;53.106;18.046;2023-04-25T00:37:34;99611.17;;;9.66;92.27
76730;BME280;65653;53.106;18.046;2023-04-25T00:40:01;99619.02;;;9.61;92.07
76730;BME280;65653;53.106;18.046;2023-04-25T00:42:29;99622.13;;;9.58;91.55
76730;BME280;65653;53.106;18.046;2023-04-25T00:44:56;99622.09;;;9.52;90.83
76730;BME280;65653;53.106;18.046;2023-04-25T00:47:25;99620.46;;;9.48;90.46
76730;BME280;65653;53.106;18.046;2023-04-25T00:49:52;99625.10;;;9.43;89.43
76730;BME280;65653;53.106;18.046;2023-04-25T00:52:20;99624.91;;;9.40;89.94
76730;BME280;65653;53.106;18.046;2023-04-25T00:54:47;99623.55;;;9.39;90.22
76730;BME280;65653;53.106;18.046;2023-04-25T00:57:14;99626.68;;;9.36;90.70
76730;BME280;65653;53.106;18.046;2023-04-25T00:59:44;99626.58;;;9.33;91.35
76730;BME280;65653;53.106;18.046;2023-04-25T01:02:12;99628.04;;;9.31;91.86
76730;BME280;65653;53.106;18.046;2023-04-25T01:04:39;99628.95;;;9.27;91.90
76730;BME280;65653;53.106;18.046;2023-04-25T01:07:06;99630.05;;;9.22;91.97
76730;BME280;65653;53.106;18.046;2023-04-25T01:09:32;99626.98;;;9.18;92.13
76730;BME280;65653;53.106;18.046;2023-04-25T01:11:59;99634.19;;;9.14;91.92
76730;BME280;65653;53.106;18.046;2023-04-25T01:14:27;99627.45;;;9.09;91.41
76730;BME280;65653;53.106;18.046;2023-04-25T01:16:54;99628.91;;;9.07;90.77
76730;BME280;65653;53.106;18.046;2023-04-25T01:19:21;99628.11;;;9.08;90.17
76730;BME280;65653;53.106;18.046;2023-04-25T01:21:47;99629.34;;;9.08;89.74
76730;BME280;65653;53.106;18.046;2023-04-25T01:24:14;99630.73;;;9.10;89.20
76730;BME280;65653;53.106;18.046;2023-04-25T01:26:42;99627.95;;;9.12;88.70
76730;BME280;65653;53.106;18.046;2023-04-25T01:29:19;99632.05;;;9.15;88.40
76730;BME280;65653;53.106;18.046;2023-04-25T01:31:47;99636.25;;;9.16;87.98
76730;BME280;65653;53.106;18.046;2023-04-25T01:34:13;99635.94;;;9.18;87.39
76730;BME280;65653;53.106;18.046;2023-04-25T01:36:40;99638.45;;;9.19;86.88
76730;BME280;65653;53.106;18.046;2023-04-25T01:39:07;99637.82;;;9.17;87.02
76730;BME280;65653;53.106;18.046;2023-04-25T01:41:34;99639.80;;;9.13;86.92
76730;BME280;65653;53.106;18.046;2023-04-25T01:44:01;99633.33;;;9.10;87.08
76730;BME280;65653;53.106;18.046;2023-04-25T01:46:29;99639.80;;;9.06;87.13
76730;BME280;65653;53.106;18.046;2023-04-25T01:48:57;99638.83;;;9.01;87.29
76730;BME280;65653;53.106;18.046;2023-04-25T01:51:23;99643.80;;;8.96;87.71
76730;BME280;65653;53.106;18.046;2023-04-25T01:53:50;99642.98;;;8.92;87.91
76730;BME280;65653;53.106;18.046;2023-04-25T01:56:18;99643.14;;;8.88;88.14
76730;BME280;65653;53.106;18.046;2023-04-25T01:58:45;99644.55;;;8.85;88.46
76730;BME280;65653;53.106;18.046;2023-04-25T02:01:12;99648.91;;;8.79;88.91
76730;BME280;65653;53.106;18.046;2023-04-25T02:03:39;99653.01;;;8.73;89.09
76730;BME280;65653;53.106;18.046;2023-04-25T02:06:06;99651.38;;;8.68;89.23
76730;BME280;65653;53.106;18.046;2023-04-25T02:08:33;99652.55;;;8.63;88.91
76730;BME280;65653;53.106;18.046;2023-04-25T02:11:00;99650.33;;;8.56;88.81
76730;BME280;65653;53.106;18.046;2023-04-25T02:13:27;99651.06;;;8.51;89.16
76730;BME280;65653;53.106;18.046;2023-04-25T02:15:53;99650.99;;;8.45;89.10
76730;BME280;65653;53.106;18.046;2023-04-25T02:18:19;99647.83;;;8.40;89.14
76730;BME280;65653;53.106;18.046;2023-04-25T02:20:47;99653.44;;;8.37;88.95
76730;BME280;65653;53.106;18.046;2023-04-25T02:23:14;99652.10;;;8.32;89.08
76730;BME280;65653;53.106;18.046;2023-04-25T02:25:41;99652.79;;;8.29;89.32
76730;BME280;65653;53.106;18.046;2023-04-25T02:28:08;99655.97;;;8.26;89.54
76730;BME280;65653;53.106;18.046;2023-04-25T02:30:35;99655.63;;;8.22;89.70
76730;BME280;65653;53.106;18.046;2023-04-25T02:33:02;99663.42;;;8.18;89.74
76730;BME280;65653;53.106;18.046;2023-04-25T02:35:28;99656.40;;;8.14;89.44
76730;BME280;65653;53.106;18.046;2023-04-25T02:37:55;99657.09;;;8.10;89.33
76730;BME280;65653;53.106;18.046;2023-04-25T02:40:21;99661.42;;;8.07;89.14
76730;BME280;65653;53.106;18.046;2023-04-25T02:42:48;99658.74;;;8.04;89.16
76730;BME280;65653;53.106;18.046;2023-04-25T02:45:14;99661.59;;;8.00;88.81
76730;BME280;65653;53.106;18.046;2023-04-25T02:47:41;99661.02;;;7.97;88.43
76730;BME280;65653;53.106;18.046;2023-04-25T02:50:07;99664.10;;;7.93;88.12
76730;BME280;65653;53.106;18.046;2023-04-25T02:52:34;99663.18;;;7.89;87.93
76730;BME280;65653;53.106;18.046;2023-04-25T02:55:00;99662.20;;;7.84;87.81
76730;BME280;65653;53.106;18.046;2023-04-25T02:57:27;99665.91;;;7.79;87.93
76730;BME280;65653;53.106;18.046;2023-04-25T02:59:53;99664.41;;;7.74;87.97
76730;BME280;65653;53.106;18.046;2023-04-25T03:02:20;99664.70;;;7.69;87.99
76730;BME280;65653;53.106;18.046;2023-04-25T03:04:46;99669.77;;;7.66;88.00
76730;BME280;65653;53.106;18.046;2023-04-25T03:07:13;99669.24;;;7.60;87.72
76730;BME280;65653;53.106;18.046;2023-04-25T03:09:40;99671.03;;;7.54;87.78
76730;BME280;65653;53.106;18.046;2023-04-25T03:12:06;99667.52;;;7.48;87.77
76730;BME280;65653;53.106;18.046;2023-04-25T03:14:33;99671.90;;;7.41;87.79
76730;BME280;65653;53.106;18.046;2023-04-25T03:16:59;99669.10;;;7.35;87.56
76730;BME280;65653;53.106;18.046;2023-04-25T03:19:26;99669.78;;;7.30;87.39
76730;BME280;65653;53.106;18.046;2023-04-25T03:21:52;99677.27;;;7.25;87.18
76730;BME280;65653;53.106;18.046;2023-04-25T03:24:19;99671.45;;;7.19;87.09
76730;BME280;65653;53.106;18.046;2023-04-25T03:26:46;99675.16;;;7.13;87.35
76730;BME280;65653;53.106;18.046;2023-04-25T03:29:13;99679.52;;;7.09;87.35
76730;BME280;65653;53.106;18.046;2023-04-25T03:31:39;99677.23;;;7.05;87.30
76730;BME280;65653;53.106;18.046;2023-04-25T03:34:06;99678.48;;;7.00;87.33
76730;BME280;65653;53.106;18.046;2023-04-25T03:36:32;99681.80;;;6.96;87.43
76730;BME280;65653;53.106;18.046;2023-04-25T03:38:59;99688.04;;;6.94;87.34
76730;BME280;65653;53.106;18.046;2023-04-25T03:41:25;99685.72;;;6.90;87.44
76730;BME280;65653;53.106;18.046;2023-04-25T03:43:52;99690.77;;;6.88;87.37
76730;BME280;65653;53.106;18.046;2023-04-25T03:46:18;99697.69;;;6.86;87.39
76730;BME280;65653;53.106;18.046;2023-04-25T03:48:45;99695.58;;;6.84;87.51
76730;BME280;65653;53.106;18.046;2023-04-25T03:51:12;99701.56;;;6.82;87.65
76730;BME280;65653;53.106;18.046;2023-04-25T03:53:38;99702.46;;;6.79;87.64
76730;BME280;65653;53.106;18.046;2023-04-25T03:56:05;99706.77;;;6.79;87.58
76730;BME280;65653;53.106;18.046;2023-04-25T03:58:32;99708.98;;;6.79;87.63
76730;BME280;65653;53.106;18.046;2023-04-25T04:00:58;99707.36;;;6.79;87.59
76730;BME280;65653;53.106;18.046;2023-04-25T04:03:24;99710.66;;;6.78;87.52
76730;BME280;65653;53.106;18.046;2023-04-25T04:05:51;99714.48;;;6.80;87.44
76730;BME280;65653;53.106;18.046;2023-04-25T04:08:17;99717.71;;;6.82;87.32
76730;BME280;65653;53.106;18.046;2023-04-25T04:10:44;99719.73;;;6.83;86.87
76730;BME280;65653;53.106;18.046;2023-04-25T04:13:10;99721.29;;;6.85;86.45
76730;BME280;65653;53.106;18.046;2023-04-25T04:15:37;99728.02;;;6.86;86.25
76730;BME280;65653;53.106;18.046;2023-04-25T04:18:04;99729.47;;;6.89;86.09
76730;BME280;65653;53.106;18.046;2023-04-25T04:20:32;99729.13;;;6.91;86.13
76730;BME280;65653;53.106;18.046;2023-04-25T04:22:58;99735.88;;;6.94;85.97
76730;BME280;65653;53.106;18.046;2023-04-25T04:25:25;99736.73;;;6.97;85.86
76730;BME280;65653;53.106;18.046;2023-04-25T04:27:52;99743.77;;;6.99;85.69
76730;BME280;65653;53.106;18.046;2023-04-25T04:30:22;99741.42;;;7.00;85.60
76730;BME280;65653;53.106;18.046;2023-04-25T04:32:51;99744.13;;;7.02;85.50
76730;BME280;65653;53.106;18.046;2023-04-25T04:35:18;99749.21;;;7.04;85.23
76730;BME280;65653;53.106;18.046;2023-04-25T04:37:44;99749.95;;;7.08;85.29
76730;BME280;65653;53.106;18.046;2023-04-25T04:40:12;99748.44;;;7.12;85.25
76730;BME280;65653;53.106;18.046;2023-04-25T04:42:38;99750.41;;;7.17;84.98
76730;BME280;65653;53.106;18.046;2023-04-25T04:45:05;99749.42;;;7.23;84.86
76730;BME280;65653;53.106;18.046;2023-04-25T04:47:31;99749.59;;;7.25;84.56
76730;BME280;65653;53.106;18.046;2023-04-25T04:49:58;99746.20;;;7.27;84.49
76730;BME280;65653;53.106;18.046;2023-04-25T04:52:25;99746.05;;;7.27;84.19
76730;BME280;65653;53.106;18.046;2023-04-25T04:54:51;99745.77;;;7.27;83.70
76730;BME280;65653;53.106;18.046;2023-04-25T04:57:18;99748.57;;;7.25;83.52
76730;BME280;65653;53.106;18.046;2023-04-25T04:59:44;99749.38;;;7.23;83.66
76730;BME280;65653;53.106;18.046;2023-04-25T05:02:11;99756.49;;;7.23;83.56
76730;BME280;65653;53.106;18.046;2023-04-25T05:04:37;99755.64;;;7.23;83.69
76730;BME280;65653;53.106;18.046;2023-04-25T05:07:04;99764.88;;;7.22;83.41
76730;BME280;65653;53.106;18.046;2023-04-25T05:09:30;99759.48;;;7.20;83.20
76730;BME280;65653;53.106;18.046;2023-04-25T05:11:57;99762.16;;;7.19;83.19
76730;BME280;65653;53.106;18.046;2023-04-25T05:14:23;99760.50;;;7.19;82.72
76730;BME280;65653;53.106;18.046;2023-04-25T05:16:50;99756.88;;;7.21;82.68
76730;BME280;65653;53.106;18.046;2023-04-25T05:19:17;99754.79;;;7.24;82.50
76730;BME280;65653;53.106;18.046;2023-04-25T05:21:43;99756.77;;;7.28;82.26
76730;BME280;65653;53.106;18.046;2023-04-25T05:24:09;99756.27;;;7.34;82.09
76730;BME280;65653;53.106;18.046;2023-04-25T05:26:37;99751.80;;;7.42;81.62
76730;BME280;65653;53.106;18.046;2023-04-25T05:29:03;99753.05;;;7.53;81.61
76730;BME280;65653;53.106;18.046;2023-04-25T05:31:32;99759.16;;;7.63;80.68
76730;BME280;65653;53.106;18.046;2023-04-25T05:34:02;99759.39;;;7.71;80.69
76730;BME280;65653;53.106;18.046;2023-04-25T05:36:29;99756.27;;;7.77;80.17
76730;BME280;65653;53.106;18.046;2023-04-25T05:38:57;99758.86;;;7.81;79.33
76730;BME280;65653;53.106;18.046;2023-04-25T05:41:23;99763.02;;;7.90;78.94
76730;BME280;65653;53.106;18.046;2023-04-25T05:43:50;99757.80;;;8.00;78.75
76730;BME280;65653;53.106;18.046;2023-04-25T05:46:17;99758.58;;;8.18;78.73
76730;BME280;65653;53.106;18.046;2023-04-25T05:48:44;99762.45;;;8.36;77.95
76730;BME280;65653;53.106;18.046;2023-04-25T05:51:10;99766.05;;;8.39;77.20
76730;BME280;65653;53.106;18.046;2023-04-25T05:53:37;99763.63;;;8.37;76.97
76730;BME280;65653;53.106;18.046;2023-04-25T05:56:03;99767.80;;;8.35;77.23
76730;BME280;65653;53.106;18.046;2023-04-25T05:58:30;99765.55;;;8.38;77.71
76730;BME280;65653;53.106;18.046;2023-04-25T06:00:57;99765.95;;;8.45;77.35
76730;BME280;65653;53.106;18.046;2023-04-25T06:03:24;99767.52;;;8.52;77.83
76730;BME280;65653;53.106;18.046;2023-04-25T06:05:51;99769.34;;;8.52;77.25
76730;BME280;65653;53.106;18.046;2023-04-25T06:08:18;99767.65;;;8.43;76.98
76730;BME280;65653;53.106;18.046;2023-04-25T06:10:45;99768.13;;;8.36;76.90
76730;BME280;65653;53.106;18.046;2023-04-25T06:13:11;99766.69;;;8.32;77.60
76730;BME280;65653;53.106;18.046;2023-04-25T06:15:39;99769.80;;;8.23;76.81
76730;BME280;65653;53.106;18.046;2023-04-25T06:18:06;99768.38;;;8.15;77.09
76730;BME280;65653;53.106;18.046;2023-04-25T06:20:33;99771.25;;;8.17;77.00
76730;BME280;65653;53.106;18.046;2023-04-25T06:22:59;99767.73;;;8.26;77.16
76730;BME280;65653;53.106;18.046;2023-04-25T06:25:26;99769.70;;;8.36;77.02
76730;BME280;65653;53.106;18.046;2023-04-25T06:27:52;99768.90;;;8.39;76.47
76730;BME280;65653;53.106;18.046;2023-04-25T06:30:19;99775.43;;;8.44;76.87
76730;BME280;65653;53.106;18.046;2023-04-25T06:32:49;99771.25;;;8.54;75.99
76730;BME280;65653;53.106;18.046;2023-04-25T06:35:15;99770.70;;;8.56;75.78
76730;BME280;65653;53.106;18.046;2023-04-25T06:37:42;99774.40;;;8.67;75.56
76730;BME280;65653;53.106;18.046;2023-04-25T06:40:09;99766.46;;;8.83;74.85
76730;BME280;65653;53.106;18.046;2023-04-25T06:42:35;99767.20;;;8.93;73.81
76730;BME280;65653;53.106;18.046;2023-04-25T06:45:02;99764.56;;;9.18;73.76
76730;BME280;65653;53.106;18.046;2023-04-25T06:47:29;99755.18;;;9.45;72.78
76730;BME280;65653;53.106;18.046;2023-04-25T06:49:56;99754.34;;;9.60;72.47
76730;BME280;65653;53.106;18.046;2023-04-25T06:52:22;99757.71;;;9.82;71.80
76730;BME280;65653;53.106;18.046;2023-04-25T06:54:49;99750.91;;;9.92;71.14
76730;BME280;65653;53.106;18.046;2023-04-25T06:57:16;99753.06;;;10.03;70.33
76730;BME280;65653;53.106;18.046;2023-04-25T06:59:42;99755.28;;;10.21;70.09
76730;BME280;65653;53.106;18.046;2023-04-25T07:02:09;99753.44;;;10.25;69.08
76730;BME280;65653;53.106;18.046;2023-04-25T07:04:36;99752.57;;;10.28;69.46
76730;BME280;65653;53.106;18.046;2023-04-25T07:07:02;99750.51;;;10.34;68.72
76730;BME280;65653;53.106;18.046;2023-04-25T07:09:30;99755.27;;;10.56;67.43
76730;BME280;65653;53.106;18.046;2023-04-25T07:11:56;99746.49;;;10.77;66.59
76730;BME280;65653;53.106;18.046;2023-04-25T07:14:23;99750.83;;;10.86;65.27
76730;BME280;65653;53.106;18.046;2023-04-25T07:16:49;99749.96;;;10.71;65.88
76730;BME280;65653;53.106;18.046;2023-04-25T07:19:16;99755.35;;;10.78;66.16
76730;BME280;65653;53.106;18.046;2023-04-25T07:21:42;99756.63;;;10.86;65.06
76730;BME280;65653;53.106;18.046;2023-04-25T07:24:09;99760.96;;;11.08;63.78
76730;BME280;65653;53.106;18.046;2023-04-25T07:26:35;99761.79;;;11.24;64.08
76730;BME280;65653;53.106;18.046;2023-04-25T07:29:02;99760.20;;;11.25;62.97
76730;BME280;65653;53.106;18.046;2023-04-25T07:31:28;99767.65;;;11.29;61.83
76730;BME280;65653;53.106;18.046;2023-04-25T07:33:55;99764.91;;;11.43;62.54
76730;BME280;65653;53.106;18.046;2023-04-25T07:36:22;99763.73;;;11.55;62.85
76730;BME280;65653;53.106;18.046;2023-04-25T07:38:48;99758.79;;;11.68;62.32
76730;BME280;65653;53.106;18.046;2023-04-25T07:41:15;99757.33;;;12.08;61.16
76730;BME280;65653;53.106;18.046;2023-04-25T07:43:42;99759.37;;;12.38;60.20
76730;BME280;65653;53.106;18.046;2023-04-25T07:46:08;99756.17;;;12.68;60.46
76730;BME280;65653;53.106;18.046;2023-04-25T07:48:35;99753.65;;;12.68;59.40
76730;BME280;65653;53.106;18.046;2023-04-25T07:51:02;99758.88;;;12.49;58.35
76730;BME280;65653;53.106;18.046;2023-04-25T07:53:32;99762.15;;;12.18;58.30
76730;BME280;65653;53.106;18.046;2023-04-25T07:56:01;99760.70;;;12.01;59.31
76730;BME280;65653;53.106;18.046;2023-04-25T07:58:27;99767.77;;;11.86;59.65
76730;BME280;65653;53.106;18.046;2023-04-25T08:00:54;99766.66;;;11.80;60.36
76730;BME280;65653;53.106;18.046;2023-04-25T08:03:20;99768.09;;;11.85;60.68
76730;BME280;65653;53.106;18.046;2023-04-25T08:05:47;99777.33;;;11.76;60.96
76730;BME280;65653;53.106;18.046;2023-04-25T08:08:14;99777.21;;;11.55;61.22
76730;BME280;65653;53.106;18.046;2023-04-25T08:10:40;99782.42;;;11.41;61.32
76730;BME280;65653;53.106;18.046;2023-04-25T08:13:07;99778.33;;;11.38;61.65
76730;BME280;65653;53.106;18.046;2023-04-25T08:15:34;99779.23;;;11.33;61.54
76730;BME280;65653;53.106;18.046;2023-04-25T08:18:01;99783.98;;;11.29;62.68
76730;BME280;65653;53.106;18.046;2023-04-25T08:20:27;99783.72;;;11.23;62.96
76730;BME280;65653;53.106;18.046;2023-04-25T08:22:54;99792.42;;;11.18;63.49
76730;BME280;65653;53.106;18.046;2023-04-25T08:25:21;99791.55;;;11.29;63.90
76730;BME280;65653;53.106;18.046;2023-04-25T08:27:48;99790.95;;;11.37;63.83
76730;BME280;65653;53.106;18.046;2023-04-25T08:30:14;99795.89;;;11.43;63.22
76730;BME280;65653;53.106;18.046;2023-04-25T08:32:41;99798.99;;;11.49;62.82
76730;BME280;65653;53.106;18.046;2023-04-25T08:35:08;99794.73;;;11.81;62.71
76730;BME280;65653;53.106;18.046;2023-04-25T08:37:34;99790.74;;;12.27;61.34
76730;BME280;65653;53.106;18.046;2023-04-25T08:40:01;99789.00;;;12.59;59.97
76730;BME280;65653;53.106;18.046;2023-04-25T08:42:27;99788.28;;;12.84;59.01
76730;BME280;65653;53.106;18.046;2023-04-25T08:44:55;99788.51;;;13.20;58.82
76730;BME280;65653;53.106;18.046;2023-04-25T08:47:22;99784.61;;;13.53;57.94
76730;BME280;65653;53.106;18.046;2023-04-25T08:49:52;99789.55;;;13.39;57.26
76730;BME280;65653;53.106;18.046;2023-04-25T08:52:22;99791.08;;;12.97;57.28
76730;BME280;65653;53.106;18.046;2023-04-25T08:54:51;99794.35;;;12.82;58.13
76730;BME280;65653;53.106;18.046;2023-04-25T08:57:19;99792.86;;;12.90;58.24
76730;BME280;65653;53.106;18.046;2023-04-25T08:59:46;99796.81;;;13.13;58.02
76730;BME280;65653;53.106;18.046;2023-04-25T09:02:13;99796.14;;;13.06;56.94
76730;BME280;65653;53.106;18.046;2023-04-25T09:04:43;99796.09;;;13.09;57.96
76730;BME280;65653;53.106;18.046;2023-04-25T09:07:10;99798.67;;;13.14;57.54
76730;BME280;65653;53.106;18.046;2023-04-25T09:09:37;99802.52;;;13.03;57.00
76730;BME280;65653;53.106;18.046;2023-04-25T09:12:05;99806.40;;;12.99;58.02
76730;BME280;65653;53.106;18.046;2023-04-25T09:14:31;99810.22;;;13.21;57.20
76730;BME280;65653;53.106;18.046;2023-04-25T09:16:59;99808.66;;;13.33;56.47
76730;BME280;65653;53.106;18.046;2023-04-25T09:19:29;99812.60;;;13.61;56.20
76730;BME280;65653;53.106;18.046;2023-04-25T09:21:58;99809.86;;;13.82;55.80
76730;BME280;65653;53.106;18.046;2023-04-25T09:24:36;99809.20;;;14.18;55.20
76730;BME280;65653;53.106;18.046;2023-04-25T09:27:04;99809.95;;;14.45;52.00
76730;BME280;65653;53.106;18.046;2023-04-25T09:29:36;99807.58;;;14.19;50.41
76730;BME280;65653;53.106;18.046;2023-04-25T09:32:21;99806.05;;;13.98;51.97
76730;BME280;65653;53.106;18.046;2023-04-25T09:34:52;99813.14;;;13.77;52.04
76730;BME280;65653;53.106;18.046;2023-04-25T09:37:21;99813.36;;;13.60;52.70
76730;BME280;65653;53.106;18.046;2023-04-25T09:39:50;99818.50;;;13.48;53.33
76730;BME280;65653;53.106;18.046;2023-04-25T09:42:17;99820.98;;;13.63;53.74
76730;BME280;65653;53.106;18.046;2023-04-25T09:44:45;99825.60;;;13.52;52.80
76730;BME280;65653;53.106;18.046;2023-04-25T09:47:14;99822.57;;;13.38;52.55
76730;BME280;65653;53.106;18.046;2023-04-25T09:49:42;99826.02;;;13.26;52.26
76730;BME280;65653;53.106;18.046;2023-04-25T09:52:14;99829.58;;;13.33;52.66
76730;BME280;65653;53.106;18.046;2023-04-25T09:54:41;99832.54;;;13.59;52.50
76730;BME280;65653;53.106;18.046;2023-04-25T09:57:16;99834.36;;;13.86;52.31
76730;BME280;65653;53.106;18.046;2023-04-25T09:59:47;99830.07;;;14.07;51.85
76730;BME280;65653;53.106;18.046;2023-04-25T10:02:17;99831.05;;;13.92;51.96
76730;BME280;65653;53.106;18.046;2023-04-25T10:04:48;99833.53;;;13.80;52.17
76730;BME280;65653;53.106;18.046;2023-04-25T10:07:18;99834.16;;;13.83;52.22
76730;BME280;65653;53.106;18.046;2023-04-25T10:09:48;99832.18;;;13.82;52.60
76730;BME280;65653;53.106;18.046;2023-04-25T10:12:19;99838.14;;;13.72;51.83
76730;BME280;65653;53.106;18.046;2023-04-25T10:14:46;99841.60;;;13.66;52.34
76730;BME280;65653;53.106;18.046;2023-04-25T10:17:14;99840.08;;;13.63;52.48
76730;BME280;65653;53.106;18.046;2023-04-25T10:19:40;99838.92;;;13.48;52.19
76730;BME280;65653;53.106;18.046;2023-04-25T10:22:14;99842.84;;;13.39;52.77
76730;BME280;65653;53.106;18.046;2023-04-25T10:24:43;99841.40;;;13.57;53.43
76730;BME280;65653;53.106;18.046;2023-04-25T10:27:10;99842.01;;;13.57;52.93
76730;BME280;65653;53.106;18.046;2023-04-25T10:29:37;99840.53;;;13.35;53.29
76730;BME280;65653;53.106;18.046;2023-04-25T10:32:04;99844.91;;;13.02;54.28
76730;BME280;65653;53.106;18.046;2023-04-25T10:34:43;99850.57;;;12.79;54.52
76730;BME280;65653;53.106;18.046;2023-04-25T10:37:13;99847.14;;;12.55;54.60
76730;BME280;65653;53.106;18.046;2023-04-25T10:39:40;99849.25;;;12.57;55.30
76730;BME280;65653;53.106;18.046;2023-04-25T10:42:15;99851.05;;;12.56;55.39
76730;BME280;65653;53.106;18.046;2023-04-25T10:45:00;99850.61;;;12.60;55.34
76730;BME280;65653;53.106;18.046;2023-04-25T10:47:43;99846.75;;;12.75;54.99
76730;BME280;65653;53.106;18.046;2023-04-25T10:50:17;99845.92;;;13.13;54.32
76730;BME280;65653;53.106;18.046;2023-04-25T10:52:44;99848.14;;;13.42;53.41
76730;BME280;65653;53.106;18.046;2023-04-25T10:55:11;99849.67;;;13.59;51.58
76730;BME280;65653;53.106;18.046;2023-04-25T10:57:42;99848.29;;;13.54;50.93
76730;BME280;65653;53.106;18.046;2023-04-25T11:00:15;99848.11;;;13.62;50.81
76730;BME280;65653;53.106;18.046;2023-04-25T11:02:46;99848.54;;;13.95;51.09
76730;BME280;65653;53.106;18.046;2023-04-25T11:05:33;99848.27;;;14.30;50.07
76730;BME280;65653;53.106;18.046;2023-04-25T11:08:01;99848.13;;;14.42;49.11
76730;BME280;65653;53.106;18.046;2023-04-25T11:10:31;99843.05;;;14.58;48.62
76730;BME280;65653;53.106;18.046;2023-04-25T11:12:58;99847.64;;;14.61;48.16
76730;BME280;65653;53.106;18.046;2023-04-25T11:15:26;99852.77;;;14.68;47.44
76730;BME280;65653;53.106;18.046;2023-04-25T11:17:53;99854.21;;;14.84;46.79
76730;BME280;65653;53.106;18.046;2023-04-25T11:20:21;99853.08;;;14.83;46.56
76730;BME280;65653;53.106;18.046;2023-04-25T11:22:48;99852.33;;;14.71;47.35
76730;BME280;65653;53.106;18.046;2023-04-25T11:25:15;99849.99;;;14.27;48.58
76730;BME280;65653;53.106;18.046;2023-04-25T11:27:53;99852.79;;;13.77;50.42
76730;BME280;65653;53.106;18.046;2023-04-25T11:30:21;99859.68;;;13.36;50.88
76730;BME280;65653;53.106;18.046;2023-04-25T11:32:48;99860.48;;;12.95;51.69
76730;BME280;65653;53.106;18.046;2023-04-25T11:35:15;99863.86;;;12.49;52.67
76730;BME280;65653;53.106;18.046;2023-04-25T11:37:43;99863.99;;;12.21;53.87
76730;BME280;65653;53.106;18.046;2023-04-25T11:40:10;99869.35;;;11.94;55.34
76730;BME280;65653;53.106;18.046;2023-04-25T11:42:39;99864.91;;;11.75;56.06
76730;BME280;65653;53.106;18.046;2023-04-25T11:45:06;99870.73;;;11.73;56.22
76730;BME280;65653;53.106;18.046;2023-04-25T11:47:33;99871.06;;;11.66;56.01
76730;BME280;65653;53.106;18.046;2023-04-25T11:50:05;99874.05;;;11.65;56.36
76730;BME280;65653;53.106;18.046;2023-04-25T11:52:46;99874.25;;;11.72;56.11
76730;BME280;65653;53.106;18.046;2023-04-25T11:55:20;99873.30;;;11.87;56.25
76730;BME280;65653;53.106;18.046;2023-04-25T11:57:48;99877.87;;;11.98;55.69
76730;BME280;65653;53.106;18.046;2023-04-25T12:00:18;99877.69;;;12.17;55.28
76730;BME280;65653;53.106;18.046;2023-04-25T12:02:52;99872.05;;;12.34;54.70
76730;BME280;65653;53.106;18.046;2023-04-25T12:05:20;99870.41;;;12.64;53.88
76730;BME280;65653;53.106;18.046;2023-04-25T12:07:47;99867.80;;;12.93;52.63
76730;BME280;65653;53.106;18.046;2023-04-25T12:10:16;99869.75;;;13.24;52.15
76730;BME280;65653;53.106;18.046;2023-04-25T12:12:45;99870.14;;;13.48;51.55
76730;BME280;65653;53.106;18.046;2023-04-25T12:15:17;99868.79;;;13.73;50.89
76730;BME280;65653;53.106;18.046;2023-04-25T12:17:46;99874.05;;;13.82;50.11
76730;BME280;65653;53.106;18.046;2023-04-25T12:20:15;99873.73;;;13.86;50.86
76730;BME280;65653;53.106;18.046;2023-04-25T12:22:46;99876.05;;;13.95;50.58
76730;BME280;65653;53.106;18.046;2023-04-25T12:25:34;99878.27;;;13.85;47.72
76730;BME280;65653;53.106;18.046;2023-04-25T12:28:19;99872.63;;;13.89;48.67
76730;BME280;65653;53.106;18.046;2023-04-25T12:33:27;99870.48;;;14.58;47.95
76730;BME280;65653;53.106;18.046;2023-04-25T12:35:54;99869.78;;;15.33;45.91
76730;BME280;65653;53.106;18.046;2023-04-25T12:38:30;99865.77;;;16.23;44.82
76730;BME280;65653;53.106;18.046;2023-04-25T12:40:58;99862.03;;;16.94;42.20
76730;BME280;65653;53.106;18.046;2023-04-25T12:43:24;99863.67;;;17.04;42.33
76730;BME280;65653;53.106;18.046;2023-04-25T12:45:52;99864.48;;;16.92;42.42
76730;BME280;65653;53.106;18.046;2023-04-25T12:48:20;99860.02;;;16.80;42.60
76730;BME280;65653;53.106;18.046;2023-04-25T12:50:48;99859.27;;;16.60;43.44
76730;BME280;65653;53.106;18.046;2023-04-25T12:53:16;99864.16;;;16.34;44.08
76730;BME280;65653;53.106;18.046;2023-04-25T12:55:43;99865.73;;;16.13;43.98
76730;BME280;65653;53.106;18.046;2023-04-25T12:58:15;99865.02;;;15.74;45.14
76730;BME280;65653;53.106;18.046;2023-04-25T13:00:42;99865.38;;;15.77;45.50